Time;durP1;ratioP1;P1;durP2;ratioP2;P2;SDS_P1;SDS_P2;PMS_P1;PMS_P2;Temp;Humidity;BMP_temperature;BMP_pressure;BME280_temperature;BME280_humidity;BME280_pressure;Samples;Min_cycle;Max_cycle;Signal;HPM_P1;HPM_P2
2021/03/17 00:00:27;;;;;;;27.70;12.90;;;;;;;;;;4988737;28;20030;-75
2021/03/17 00:02:53;;;;;;;25.23;12.30;;;;;;;;;;4982893;28;20523;-76
2021/03/17 00:05:21;;;;;;;16.50;8.48;;;;;;;;;;4987725;28;20019;-76
2021/03/17 00:07:47;;;;;;;19.80;8.23;;;;;;;;;;4984079;28;20030;-76
2021/03/17 00:10:14;;;;;;;19.35;7.82;;;;;;;;;;4980086;28;20034;-75
2021/03/17 00:12:40;;;;;;;21.08;8.10;;;;;;;;;;4983387;28;20026;-76
2021/03/17 00:15:07;;;;;;;17.95;7.72;;;;;;;;;;4984524;28;20037;-74
2021/03/17 00:17:33;;;;;;;20.35;10.20;;;;;;;;;;4989759;28;20034;-77
2021/03/17 00:19:59;;;;;;;25.50;10.82;;;;;;;;;;4984561;28;20034;-75
2021/03/17 00:22:25;;;;;;;26.02;12.13;;;;;;;;;;4986512;28;20027;-76
2021/03/17 00:24:51;;;;;;;35.42;12.85;;;;;;;;;;4988841;28;20109;-75
2021/03/17 00:27:17;;;;;;;24.80;10.55;;;;;;;;;;4990904;28;20026;-75
2021/03/17 00:29:43;;;;;;;36.50;10.50;;;;;;;;;;4984093;28;20026;-75
2021/03/17 00:32:09;;;;;;;23.00;9.27;;;;;;;;;;4983259;28;20480;-74
2021/03/17 00:34:35;;;;;;;25.98;8.50;;;;;;;;;;4988996;28;20038;-74
2021/03/17 00:37:01;;;;;;;25.67;9.85;;;;;;;;;;4980242;28;20034;-75
2021/03/17 00:39:27;;;;;;;17.95;7.57;;;;;;;;;;4980157;28;20030;-74
2021/03/17 00:41:53;;;;;;;20.55;7.80;;;;;;;;;;4990601;28;20049;-75
2021/03/17 00:44:19;;;;;;;22.88;8.48;;;;;;;;;;4991717;28;20022;-74
2021/03/17 00:46:45;;;;;;;22.63;8.07;;;;;;;;;;4985358;28;20019;-74
2021/03/17 00:49:11;;;;;;;26.25;8.20;;;;;;;;;;4994329;28;20037;-72
2021/03/17 00:51:37;;;;;;;19.83;8.52;;;;;;;;;;4982026;28;20051;-75
2021/03/17 00:54:04;;;;;;;27.85;8.40;;;;;;;;;;4990774;28;20026;-74
2021/03/17 00:56:30;;;;;;;25.20;8.65;;;;;;;;;;4986546;28;20057;-74
2021/03/17 00:58:56;;;;;;;20.92;10.38;;;;;;;;;;4989999;28;20034;-74
2021/03/17 01:01:22;;;;;;;26.00;9.48;;;;;;;;;;4985411;28;20022;-75
2021/03/17 01:03:48;;;;;;;25.38;9.32;;;;;;;;;;4987693;28;20058;-74
2021/03/17 01:06:14;;;;;;;27.10;9.55;;;;;;;;;;4982362;28;20023;-73
2021/03/17 01:08:41;;;;;;;21.15;7.85;;;;;;;;;;4984167;28;20058;-74
2021/03/17 01:11:07;;;;;;;31.73;8.32;;;;;;;;;;4984295;28;20061;-74
2021/03/17 01:13:33;;;;;;;20.58;8.45;;;;;;;;;;4980553;28;20034;-75
2021/03/17 01:15:59;;;;;;;30.10;9.35;;;;;;;;;;4985858;28;20034;-73
2021/03/17 01:18:25;;;;;;;20.92;7.20;;;;;;;;;;4990352;28;20030;-74
2021/03/17 01:20:51;;;;;;;17.83;6.75;;;;;;;;;;4979909;28;20026;-74
2021/03/17 01:23:18;;;;;;;26.75;7.72;;;;;;;;;;4990236;28;20037;-74
2021/03/17 01:25:45;;;;;;;23.98;6.25;;;;;;;;;;4985579;28;20019;-74
2021/03/17 01:28:12;;;;;;;24.48;5.60;;;;;;;;;;4986755;28;20037;-77
2021/03/17 01:30:38;;;;;;;17.80;5.55;;;;;;;;;;4983514;28;20023;-74
2021/03/17 01:33:05;;;;;;;16.10;5.30;;;;;;;;;;4974415;28;20519;-74
2021/03/17 01:35:31;;;;;;;14.52;4.35;;;;;;;;;;4980858;28;20036;-74
2021/03/17 01:37:57;;;;;;;15.73;3.47;;;;;;;;;;4975803;28;20038;-75
2021/03/17 01:40:24;;;;;;;16.13;3.17;;;;;;;;;;4986400;28;20133;-74
2021/03/17 01:42:51;;;;;;;14.65;3.33;;;;;;;;;;4980746;28;20035;-75
2021/03/17 01:45:18;;;;;;;11.88;2.78;;;;;;;;;;4979169;28;20098;-74
2021/03/17 01:47:45;;;;;;;16.05;2.85;;;;;;;;;;4982671;28;20026;-74
2021/03/17 01:50:16;;;;;;;12.07;2.70;;;;;;;;;;4989367;28;20030;-74
2021/03/17 01:52:43;;;;;;;14.63;3.22;;;;;;;;;;4986393;28;20104;-75
2021/03/17 01:55:10;;;;;;;15.88;3.28;;;;;;;;;;4990062;28;20624;-74
2021/03/17 01:57:36;;;;;;;15.30;3.42;;;;;;;;;;4984603;28;20088;-73
2021/03/17 02:00:13;;;;;;;12.82;3.03;;;;;;;;;;4980731;28;20077;-74
2021/03/17 02:02:40;;;;;;;16.83;3.13;;;;;;;;;;4987592;28;20022;-73
2021/03/17 02:05:07;;;;;;;16.30;2.90;;;;;;;;;;4982683;28;20220;-74
2021/03/17 02:07:33;;;;;;;21.17;3.47;;;;;;;;;;4978474;28;20026;-75
2021/03/17 02:09:59;;;;;;;12.85;1.77;;;;;;;;;;4981779;28;20031;-75
2021/03/17 02:12:48;;;;;;;17.05;3.55;;;;;;;;;;4983825;28;20023;-75
2021/03/17 02:15:23;;;;;;;19.75;2.63;;;;;;;;;;4976733;28;20101;-75
2021/03/17 02:17:50;;;;;;;12.98;2.30;;;;;;;;;;4987576;28;20042;-74
2021/03/17 02:20:35;;;;;;;17.98;3.30;;;;;;;;;;4989545;28;20522;-74
2021/03/17 02:23:10;;;;;;;20.45;3.97;;;;;;;;;;4979919;28;20029;-74
2021/03/17 02:25:42;;;;;;;27.15;3.38;;;;;;;;;;4987035;28;20022;-74
2021/03/17 02:28:27;;;;;;;17.33;4.10;;;;;;;;;;4980635;28;20400;-74
2021/03/17 02:30:53;;;;;;;23.98;3.53;;;;;;;;;;4986681;28;20120;-74
2021/03/17 02:33:37;;;;;;;15.20;3.45;;;;;;;;;;4993196;28;20706;-74
2021/03/17 02:36:06;;;;;;;20.80;3.40;;;;;;;;;;4988993;28;20053;-75
2021/03/17 02:38:32;;;;;;;26.25;5.25;;;;;;;;;;4978735;28;20039;-75
2021/03/17 02:41:00;;;;;;;22.13;4.13;;;;;;;;;;4985094;28;20393;-74
2021/03/17 02:43:33;;;;;;;23.25;3.85;;;;;;;;;;4980180;28;20023;-74
2021/03/17 02:46:07;;;;;;;21.38;3.70;;;;;;;;;;4990068;28;20033;-74
2021/03/17 02:48:37;;;;;;;22.02;3.97;;;;;;;;;;4996412;28;20084;-75
2021/03/17 02:51:09;;;;;;;18.23;3.17;;;;;;;;;;4993654;28;20062;-74
2021/03/17 02:53:36;;;;;;;21.48;4.10;;;;;;;;;;4992778;28;20053;-73
2021/03/17 02:56:08;;;;;;;17.00;3.33;;;;;;;;;;4986903;28;20034;-74
2021/03/17 02:58:36;;;;;;;19.52;3.95;;;;;;;;;;4991544;28;20050;-74
2021/03/17 03:01:02;;;;;;;26.17;4.07;;;;;;;;;;4993102;28;20030;-74
2021/03/17 03:03:29;;;;;;;18.40;4.30;;;;;;;;;;4990547;28;20512;-74
2021/03/17 03:05:56;;;;;;;27.52;3.83;;;;;;;;;;4992596;28;20085;-74
2021/03/17 03:08:24;;;;;;;21.77;3.92;;;;;;;;;;4989090;28;20026;-75
2021/03/17 03:10:50;;;;;;;21.80;3.20;;;;;;;;;;4989851;28;20439;-74
2021/03/17 03:13:17;;;;;;;22.88;4.65;;;;;;;;;;4985304;28;20033;-74
2021/03/17 03:15:43;;;;;;;24.05;4.63;;;;;;;;;;4987026;28;20097;-74
2021/03/17 03:18:11;;;;;;;22.45;4.35;;;;;;;;;;4991914;28;20030;-74
2021/03/17 03:20:37;;;;;;;14.23;3.00;;;;;;;;;;4992539;28;20033;-74
2021/03/17 03:23:04;;;;;;;16.75;3.85;;;;;;;;;;4991069;28;20022;-74
2021/03/17 03:25:30;;;;;;;14.63;2.75;;;;;;;;;;4991279;28;20661;-74
2021/03/17 03:27:57;;;;;;;16.92;2.65;;;;;;;;;;4992136;28;20030;-73
2021/03/17 03:30:27;;;;;;;20.17;3.30;;;;;;;;;;4990927;28;20030;-73
2021/03/17 03:32:54;;;;;;;16.38;2.67;;;;;;;;;;4992082;28;20038;-73
2021/03/17 03:35:21;;;;;;;18.88;3.20;;;;;;;;;;4983258;28;20038;-74
2021/03/17 03:37:47;;;;;;;22.35;3.13;;;;;;;;;;4987530;28;20031;-74
2021/03/17 03:40:15;;;;;;;15.43;3.08;;;;;;;;;;4991728;28;20026;-73
2021/03/17 03:42:41;;;;;;;13.10;3.28;;;;;;;;;;4987156;28;20109;-74
2021/03/17 03:45:09;;;;;;;22.10;3.60;;;;;;;;;;4989223;28;20106;-76
2021/03/17 03:47:35;;;;;;;24.30;3.88;;;;;;;;;;4982389;28;20485;-76
2021/03/17 03:50:01;;;;;;;23.90;4.20;;;;;;;;;;4990062;28;20029;-76
2021/03/17 03:52:31;;;;;;;43.10;5.45;;;;;;;;;;4989734;28;20054;-76
2021/03/17 03:55:00;;;;;;;44.40;6.53;;;;;;;;;;4977909;28;20030;-77
2021/03/17 03:57:32;;;;;;;46.40;7.35;;;;;;;;;;4990881;28;20037;-76
2021/03/17 04:00:02;;;;;;;40.08;7.25;;;;;;;;;;4985423;28;20027;-76
2021/03/17 04:02:32;;;;;;;35.90;5.93;;;;;;;;;;4976541;28;20085;-76
2021/03/17 04:05:00;;;;;;;34.55;5.13;;;;;;;;;;4990537;28;20034;-76
2021/03/17 04:07:26;;;;;;;40.88;5.80;;;;;;;;;;4977939;28;20019;-78
2021/03/17 04:09:54;;;;;;;43.13;7.28;;;;;;;;;;4985270;28;20030;-77
2021/03/17 04:12:21;;;;;;;38.55;4.88;;;;;;;;;;4986241;28;20034;-77
2021/03/17 04:14:53;;;;;;;31.60;6.50;;;;;;;;;;4988318;28;20018;-76
2021/03/17 04:17:24;;;;;;;51.55;8.43;;;;;;;;;;4985808;28;20058;-77
2021/03/17 04:19:52;;;;;;;38.53;6.03;;;;;;;;;;4990282;28;20088;-76
2021/03/17 04:22:19;;;;;;;38.85;6.75;;;;;;;;;;4989358;28;20448;-76
2021/03/17 04:24:46;;;;;;;41.90;7.07;;;;;;;;;;4987226;28;20038;-75
2021/03/17 04:27:13;;;;;;;42.55;6.07;;;;;;;;;;4988041;28;20029;-76
2021/03/17 04:29:40;;;;;;;58.22;8.18;;;;;;;;;;4992925;28;20014;-76
2021/03/17 04:32:07;;;;;;;50.55;8.85;;;;;;;;;;4984473;28;20901;-75
2021/03/17 04:34:33;;;;;;;57.15;8.95;;;;;;;;;;4980854;28;20034;-75
2021/03/17 04:37:00;;;;;;;64.57;10.55;;;;;;;;;;4990175;28;20041;-75
2021/03/17 04:39:27;;;;;;;71.72;11.77;;;;;;;;;;4990276;28;20034;-75
2021/03/17 04:41:57;;;;;;;82.85;14.60;;;;;;;;;;4985840;28;20570;-78
2021/03/17 04:44:23;;;;;;;104.07;17.33;;;;;;;;;;4988184;28;20027;-75
2021/03/17 04:46:49;;;;;;;79.00;14.50;;;;;;;;;;4987756;28;20109;-76
2021/03/17 04:49:18;;;;;;;94.55;12.55;;;;;;;;;;4996424;28;20030;-78
2021/03/17 04:51:45;;;;;;;81.93;14.00;;;;;;;;;;4989386;28;20086;-77
2021/03/17 04:54:11;;;;;;;72.53;12.25;;;;;;;;;;4981255;28;20015;-76
2021/03/17 04:56:39;;;;;;;92.70;12.98;;;;;;;;;;4991156;28;20026;-77
2021/03/17 04:59:06;;;;;;;92.47;13.00;;;;;;;;;;4989834;28;20026;-76
2021/03/17 05:01:35;;;;;;;81.85;13.45;;;;;;;;;;4980424;28;20038;-77
2021/03/17 05:04:01;;;;;;;88.90;15.10;;;;;;;;;;4987299;28;20480;-77
2021/03/17 05:06:30;;;;;;;71.63;11.30;;;;;;;;;;4990292;28;20145;-79
2021/03/17 05:08:56;;;;;;;94.05;16.50;;;;;;;;;;4986981;28;20022;-77
2021/03/17 05:11:23;;;;;;;104.20;14.77;;;;;;;;;;4987717;28;20031;-76
2021/03/17 05:13:49;;;;;;;95.88;15.45;;;;;;;;;;4979005;28;20080;-78
2021/03/17 05:16:15;;;;;;;84.30;13.73;;;;;;;;;;4977324;28;20025;-76
2021/03/17 05:18:42;;;;;;;74.55;11.57;;;;;;;;;;4978414;28;20117;-76
2021/03/17 05:21:10;;;;;;;83.82;14.00;;;;;;;;;;4979746;28;20022;-78
2021/03/17 05:23:38;;;;;;;87.63;14.48;;;;;;;;;;4983879;28;20026;-79
2021/03/17 05:26:04;;;;;;;95.13;16.58;;;;;;;;;;4989536;28;20018;-79
2021/03/17 05:28:31;;;;;;;79.75;14.68;;;;;;;;;;4975274;28;20045;-80
2021/03/17 05:30:57;;;;;;;88.30;16.48;;;;;;;;;;4985668;28;20030;-78
2021/03/17 05:33:26;;;;;;;73.70;12.63;;;;;;;;;;4985227;28;20490;-80
2021/03/17 05:35:52;;;;;;;90.28;14.48;;;;;;;;;;4982380;28;20026;-79
2021/03/17 05:38:18;;;;;;;85.45;13.20;;;;;;;;;;4984409;28;20026;-78
2021/03/17 05:40:44;;;;;;;66.18;11.82;;;;;;;;;;4977498;28;20081;-80
2021/03/17 05:43:10;;;;;;;80.60;13.90;;;;;;;;;;4990280;28;20041;-79
2021/03/17 05:45:37;;;;;;;94.30;17.55;;;;;;;;;;4990772;28;20033;-81
2021/03/17 05:48:04;;;;;;;94.03;15.50;;;;;;;;;;4994134;28;20034;-82
2021/03/17 05:50:30;;;;;;;61.90;11.68;;;;;;;;;;4986891;28;20023;-81
2021/03/17 05:52:56;;;;;;;88.57;14.13;;;;;;;;;;4981572;28;20113;-78
2021/03/17 05:55:22;;;;;;;88.13;17.10;;;;;;;;;;4985894;28;20124;-80
2021/03/17 05:57:48;;;;;;;83.28;12.60;;;;;;;;;;4989581;28;20034;-80
2021/03/17 06:00:16;;;;;;;76.47;12.68;;;;;;;;;;4991837;28;20484;-79
2021/03/17 06:02:42;;;;;;;80.75;12.43;;;;;;;;;;4982902;28;20035;-79
2021/03/17 06:05:09;;;;;;;85.95;14.38;;;;;;;;;;4992071;28;20077;-80
2021/03/17 06:07:55;;;;;;;75.00;12.27;;;;;;;;;;4990871;28;20064;-80
2021/03/17 06:10:22;;;;;;;72.70;15.88;;;;;;;;;;4975166;28;20035;-80
2021/03/17 06:12:50;;;;;;;69.55;13.27;;;;;;;;;;4990749;28;20064;-81
2021/03/17 06:15:21;;;;;;;66.65;11.23;;;;;;;;;;4992828;28;20057;-80
2021/03/17 06:17:47;;;;;;;72.03;13.43;;;;;;;;;;4984180;28;20026;-81
2021/03/17 06:20:15;;;;;;;86.50;13.82;;;;;;;;;;4988026;28;20045;-81
2021/03/17 06:22:41;;;;;;;68.65;12.63;;;;;;;;;;4985855;28;20058;-79
2021/03/17 06:25:08;;;;;;;71.72;10.10;;;;;;;;;;4991048;28;20041;-83
2021/03/17 06:27:34;;;;;;;64.75;12.75;;;;;;;;;;4988045;28;20080;-81
2021/03/17 06:30:02;;;;;;;80.57;13.25;;;;;;;;;;4989092;28;20101;-79
2021/03/17 06:32:30;;;;;;;66.03;12.18;;;;;;;;;;4989041;28;20030;-80
2021/03/17 06:34:56;;;;;;;60.75;10.15;;;;;;;;;;4988142;28;20117;-79
2021/03/17 06:37:43;;;;;;;63.47;10.45;;;;;;;;;;4993271;28;20549;-79
2021/03/17 06:40:28;;;;;;;75.25;11.38;;;;;;;;;;4991344;28;20134;-81
2021/03/17 06:42:55;;;;;;;69.65;11.75;;;;;;;;;;4976236;28;20034;-81
2021/03/17 06:45:38;;;;;;;61.17;10.13;;;;;;;;;;4985909;28;20025;-78
2021/03/17 06:48:19;;;;;;;74.32;12.27;;;;;;;;;;4997374;28;20621;-78
2021/03/17 06:50:46;;;;;;;67.90;11.55;;;;;;;;;;4989461;28;20018;-78
2021/03/17 06:53:12;;;;;;;50.40;9.48;;;;;;;;;;4993953;28;20085;-77
2021/03/17 06:55:38;;;;;;;63.15;10.65;;;;;;;;;;4991703;28;20038;-79
2021/03/17 06:58:04;;;;;;;54.85;9.40;;;;;;;;;;4987002;28;20031;-82
2021/03/17 07:00:31;;;;;;;45.83;7.22;;;;;;;;;;4982558;28;20534;-79
2021/03/17 07:03:01;;;;;;;54.45;9.27;;;;;;;;;;4989353;28;20031;-79
2021/03/17 07:05:31;;;;;;;52.00;8.75;;;;;;;;;;4985547;28;20165;-79
2021/03/17 07:07:58;;;;;;;61.72;9.40;;;;;;;;;;4988709;28;20023;-76
2021/03/17 07:10:28;;;;;;;55.03;8.40;;;;;;;;;;4981710;28;20037;-84
2021/03/17 07:12:55;;;;;;;60.58;9.45;;;;;;;;;;4987717;28;20045;-79
2021/03/17 07:15:21;;;;;;;48.20;8.45;;;;;;;;;;4974353;28;20041;-75
2021/03/17 07:17:47;;;;;;;51.20;7.95;;;;;;;;;;4985040;28;20038;-78
2021/03/17 07:20:13;;;;;;;46.10;7.97;;;;;;;;;;4983849;28;20084;-75
2021/03/17 07:22:39;;;;;;;38.65;6.22;;;;;;;;;;4988367;28;20061;-76
2021/03/17 07:25:06;;;;;;;38.67;6.22;;;;;;;;;;4994878;28;20102;-78
2021/03/17 07:27:33;;;;;;;43.17;6.75;;;;;;;;;;4985058;28;20057;-75
2021/03/17 07:29:59;;;;;;;45.65;6.00;;;;;;;;;;4988104;28;20034;-75
2021/03/17 07:32:25;;;;;;;27.73;4.63;;;;;;;;;;4984910;28;20026;-78
2021/03/17 07:34:51;;;;;;;37.35;5.68;;;;;;;;;;4986912;28;20030;-75
2021/03/17 07:37:18;;;;;;;45.53;6.20;;;;;;;;;;4983747;28;20081;-75
2021/03/17 07:39:44;;;;;;;31.95;5.60;;;;;;;;;;4982131;28;20058;-76
2021/03/17 07:42:11;;;;;;;36.55;6.85;;;;;;;;;;4980633;28;20035;-76
2021/03/17 07:44:38;;;;;;;35.75;5.70;;;;;;;;;;4989685;28;20015;-76
2021/03/17 07:47:07;;;;;;;41.28;5.05;;;;;;;;;;4986719;28;20033;-75
2021/03/17 07:49:34;;;;;;;32.35;5.45;;;;;;;;;;4986657;28;20030;-77
2021/03/17 07:52:01;;;;;;;14.82;2.17;;;;;;;;;;4989979;28;20108;-75
2021/03/17 07:54:31;;;;;;;12.63;1.77;;;;;;;;;;4984337;28;20500;-76
2021/03/17 07:56:57;;;;;;;12.20;2.08;;;;;;;;;;4982277;28;20062;-75
2021/03/17 07:59:24;;;;;;;10.20;3.00;;;;;;;;;;4980812;28;20597;-77
2021/03/17 08:01:51;;;;;;;13.90;2.08;;;;;;;;;;4985709;28;20023;-75
2021/03/17 08:04:17;;;;;;;12.02;1.58;;;;;;;;;;4984063;28;20101;-78
2021/03/17 08:06:44;;;;;;;14.45;2.53;;;;;;;;;;4986978;28;20038;-76
2021/03/17 08:09:10;;;;;;;16.52;2.22;;;;;;;;;;5000111;28;20030;-73
2021/03/17 08:11:36;;;;;;;18.10;2.85;;;;;;;;;;4982348;28;20093;-76
2021/03/17 08:14:03;;;;;;;12.35;2.08;;;;;;;;;;4987686;28;20559;-77
2021/03/17 08:16:31;;;;;;;15.95;3.22;;;;;;;;;;4984917;28;20088;-75
2021/03/17 08:18:57;;;;;;;17.35;2.67;;;;;;;;;;4983005;28;20057;-75
2021/03/17 08:21:50;;;;;;;32.13;2.78;;;;;;;;;;4981703;28;20027;-75
2021/03/17 08:24:35;;;;;;;20.17;3.15;;;;;;;;;;4980040;28;20377;-76
2021/03/17 08:27:22;;;;;;;17.92;3.28;;;;;;;;;;4984463;28;20334;-75
2021/03/17 08:29:52;;;;;;;19.60;2.50;;;;;;;;;;4986085;28;21791;-81
2021/03/17 08:32:19;;;;;;;7.72;1.98;;;;;;;;;;4989264;28;20086;-77
2021/03/17 08:34:52;;;;;;;12.20;2.03;;;;;;;;;;4985441;28;20030;-79
2021/03/17 08:37:19;;;;;;;11.10;1.63;;;;;;;;;;4991681;28;20109;-74
2021/03/17 08:39:46;;;;;;;14.82;2.80;;;;;;;;;;4987908;28;20069;-75
2021/03/17 08:42:26;;;;;;;13.30;1.95;;;;;;;;;;4984467;28;20041;-75
2021/03/17 08:44:53;;;;;;;20.60;2.50;;;;;;;;;;4986067;28;20373;-75
2021/03/17 08:47:24;;;;;;;16.65;2.40;;;;;;;;;;4984668;28;20022;-76
2021/03/17 08:49:51;;;;;;;18.45;2.97;;;;;;;;;;4981724;28;20046;-73
2021/03/17 08:55:08;;;;;;;13.35;2.25;;;;;;;;;;4982864;28;20065;-77
2021/03/17 08:57:53;;;;;;;18.88;2.90;;;;;;;;;;4980259;28;20579;-73
2021/03/17 09:00:37;;;;;;;14.90;2.42;;;;;;;;;;4977243;28;20029;-73
2021/03/17 09:03:04;;;;;;;19.23;2.85;;;;;;;;;;4985154;28;20514;-72
2021/03/17 09:05:30;;;;;;;12.38;2.00;;;;;;;;;;4988292;28;20122;-75
2021/03/17 09:08:02;;;;;;;11.55;2.78;;;;;;;;;;4985126;28;20014;-72
2021/03/17 09:10:45;;;;;;;20.30;2.65;;;;;;;;;;4982842;28;20019;-71
2021/03/17 09:13:11;;;;;;;15.30;2.17;;;;;;;;;;4984659;28;20027;-72
2021/03/17 09:15:50;;;;;;;13.00;2.22;;;;;;;;;;4985853;28;20035;-72
2021/03/17 09:18:20;;;;;;;8.75;1.65;;;;;;;;;;4977260;28;20046;-73
2021/03/17 09:20:50;;;;;;;10.40;1.83;;;;;;;;;;4984992;28;20532;-73
2021/03/17 09:23:17;;;;;;;9.23;2.03;;;;;;;;;;4982155;28;20026;-75
2021/03/17 09:25:43;;;;;;;20.20;2.22;;;;;;;;;;4983833;28;20026;-77
2021/03/17 09:28:12;;;;;;;19.05;3.00;;;;;;;;;;4988147;28;20035;-75
2021/03/17 09:30:44;;;;;;;21.95;2.97;;;;;;;;;;4978130;28;20027;-72
2021/03/17 09:33:12;;;;;;;20.42;3.70;;;;;;;;;;4986919;28;20483;-72
2021/03/17 09:35:38;;;;;;;12.93;2.17;;;;;;;;;;4988367;28;20029;-72
2021/03/17 09:38:06;;;;;;;13.20;3.33;;;;;;;;;;4992933;28;20029;-73
2021/03/17 09:40:34;;;;;;;14.95;2.38;;;;;;;;;;4981129;28;20080;-74
2021/03/17 09:43:00;;;;;;;17.65;2.28;;;;;;;;;;4981944;28;20022;-72
2021/03/17 09:45:26;;;;;;;25.48;3.58;;;;;;;;;;4986422;28;20026;-72
2021/03/17 09:47:59;;;;;;;16.20;2.42;;;;;;;;;;4991714;28;20041;-73
2021/03/17 09:50:25;;;;;;;18.63;2.50;;;;;;;;;;4985576;28;20496;-72
2021/03/17 09:52:51;;;;;;;18.55;2.78;;;;;;;;;;4990094;28;20050;-73
2021/03/17 09:55:30;;;;;;;24.35;2.17;;;;;;;;;;4992626;28;20500;-71
2021/03/17 09:58:06;;;;;;;18.15;2.50;;;;;;;;;;4994464;28;20034;-72
2021/03/17 10:00:34;;;;;;;18.00;3.15;;;;;;;;;;4983005;28;20033;-72
2021/03/17 10:03:01;;;;;;;25.27;3.72;;;;;;;;;;4985842;28;20516;-72
2021/03/17 10:05:27;;;;;;;25.00;4.93;;;;;;;;;;4989858;28;20105;-73
2021/03/17 10:07:53;;;;;;;25.90;2.85;;;;;;;;;;4983424;28;20120;-72
2021/03/17 10:10:20;;;;;;;24.50;3.00;;;;;;;;;;4979149;28;20026;-72
2021/03/17 10:12:46;;;;;;;32.38;4.18;;;;;;;;;;4984637;28;20045;-72
2021/03/17 10:15:14;;;;;;;21.13;3.83;;;;;;;;;;4982518;28;20038;-72
2021/03/17 10:17:41;;;;;;;25.33;4.32;;;;;;;;;;4984711;28;20065;-71
2021/03/17 10:20:09;;;;;;;24.23;3.45;;;;;;;;;;4985140;28;20022;-72
2021/03/17 10:22:35;;;;;;;24.55;4.10;;;;;;;;;;4986147;28;20045;-72
2021/03/17 10:25:06;;;;;;;35.40;4.50;;;;;;;;;;4985132;28;20030;-74
2021/03/17 10:27:33;;;;;;;23.48;3.47;;;;;;;;;;4985479;28;20484;-73
2021/03/17 10:30:00;;;;;;;22.23;3.40;;;;;;;;;;4989542;28;20026;-72
2021/03/17 10:32:26;;;;;;;41.90;4.78;;;;;;;;;;4986852;28;20230;-74
2021/03/17 10:34:52;;;;;;;24.30;3.55;;;;;;;;;;4994002;28;20034;-73
2021/03/17 10:37:20;;;;;;;37.92;5.20;;;;;;;;;;4986336;28;20103;-70
2021/03/17 10:39:47;;;;;;;32.78;5.65;;;;;;;;;;4984991;28;20042;-72
2021/03/17 10:42:26;;;;;;;22.23;3.55;;;;;;;;;;4985128;28;20030;-72
2021/03/17 10:45:12;;;;;;;26.80;4.13;;;;;;;;;;4981340;28;20033;-71
2021/03/17 10:47:39;;;;;;;35.72;4.68;;;;;;;;;;4988674;28;20026;-71
2021/03/17 10:50:07;;;;;;;29.63;4.47;;;;;;;;;;4988560;28;20101;-72
2021/03/17 10:52:33;;;;;;;36.45;4.47;;;;;;;;;;4984888;28;20050;-71
2021/03/17 10:55:08;;;;;;;33.22;4.72;;;;;;;;;;4985292;28;20045;-70
2021/03/17 10:57:34;;;;;;;35.75;4.68;;;;;;;;;;4976456;28;20041;-71
2021/03/17 11:00:11;;;;;;;38.20;5.85;;;;;;;;;;4978984;28;20122;-72
2021/03/17 11:02:37;;;;;;;48.05;5.15;;;;;;;;;;4987257;28;20026;-70
2021/03/17 11:05:03;;;;;;;43.53;4.82;;;;;;;;;;4986854;28;20023;-70
2021/03/17 11:07:46;;;;;;;38.70;6.03;;;;;;;;;;4989544;28;20018;-72
2021/03/17 11:10:27;;;;;;;22.88;4.72;;;;;;;;;;4984968;28;20114;-71
2021/03/17 11:12:53;;;;;;;33.70;5.93;;;;;;;;;;4981278;28;20496;-72
2021/03/17 11:15:30;;;;;;;31.92;4.90;;;;;;;;;;4985513;28;20046;-73
2021/03/17 11:17:57;;;;;;;28.27;4.85;;;;;;;;;;4984879;28;20027;-70
2021/03/17 11:20:24;;;;;;;26.05;3.78;;;;;;;;;;4985563;28;20019;-72
2021/03/17 11:22:50;;;;;;;28.35;3.58;;;;;;;;;;4988073;28;20034;-72
2021/03/17 11:25:22;;;;;;;22.30;4.60;;;;;;;;;;4988076;28;20103;-70
2021/03/17 11:27:49;;;;;;;18.25;3.63;;;;;;;;;;4985254;28;20030;-72
2021/03/17 11:30:15;;;;;;;23.70;4.00;;;;;;;;;;4976864;28;20034;-72
2021/03/17 11:32:41;;;;;;;25.30;4.53;;;;;;;;;;4983272;28;20030;-73
2021/03/17 11:35:07;;;;;;;21.60;4.03;;;;;;;;;;4982265;28;20031;-72
2021/03/17 11:37:34;;;;;;;21.80;3.47;;;;;;;;;;4987066;28;20128;-71
2021/03/17 11:40:00;;;;;;;26.92;3.83;;;;;;;;;;4982425;28;20056;-72
2021/03/17 11:42:26;;;;;;;15.50;3.03;;;;;;;;;;4984809;28;20364;-72
2021/03/17 11:44:52;;;;;;;26.33;4.07;;;;;;;;;;4983136;28;20551;-73
2021/03/17 11:47:18;;;;;;;32.60;4.75;;;;;;;;;;4985958;28;20029;-71
2021/03/17 11:49:44;;;;;;;30.13;4.20;;;;;;;;;;4981066;28;20489;-73
2021/03/17 11:52:10;;;;;;;20.73;3.85;;;;;;;;;;4981154;28;20054;-73
2021/03/17 11:54:37;;;;;;;29.42;4.45;;;;;;;;;;4982567;28;20037;-74
2021/03/17 11:57:03;;;;;;;24.33;3.85;;;;;;;;;;4981688;28;20026;-73
2021/03/17 11:59:29;;;;;;;27.65;4.13;;;;;;;;;;4981801;28;20030;-74
2021/03/17 12:01:55;;;;;;;44.17;6.70;;;;;;;;;;4983615;28;20073;-75
2021/03/17 12:04:21;;;;;;;32.50;5.07;;;;;;;;;;4983020;28;20488;-75
2021/03/17 12:06:47;;;;;;;44.20;4.95;;;;;;;;;;4983588;28;20022;-74
2021/03/17 12:09:13;;;;;;;34.15;6.10;;;;;;;;;;4980790;28;20062;-74
2021/03/17 12:11:41;;;;;;;38.50;5.55;;;;;;;;;;4981186;28;20158;-75
2021/03/17 12:14:07;;;;;;;45.55;5.28;;;;;;;;;;4984018;28;20104;-76
2021/03/17 12:16:33;;;;;;;40.75;4.97;;;;;;;;;;4979920;28;20045;-75
2021/03/17 12:19:00;;;;;;;35.85;5.20;;;;;;;;;;4978932;28;20026;-75
2021/03/17 12:21:26;;;;;;;30.95;4.35;;;;;;;;;;4984056;28;20477;-74
2021/03/17 12:23:52;;;;;;;30.25;4.80;;;;;;;;;;4980999;28;20282;-75
2021/03/17 12:26:18;;;;;;;28.63;4.85;;;;;;;;;;4980394;28;20405;-76
2021/03/17 12:28:45;;;;;;;36.30;5.70;;;;;;;;;;4985616;28;20038;-76
2021/03/17 12:31:11;;;;;;;29.88;5.10;;;;;;;;;;4978935;28;20026;-75
2021/03/17 12:33:37;;;;;;;30.83;5.07;;;;;;;;;;4987083;28;20034;-77
2021/03/17 12:36:03;;;;;;;23.15;4.80;;;;;;;;;;4984931;28;20128;-76
2021/03/17 12:38:29;;;;;;;31.88;4.85;;;;;;;;;;4979742;28;20314;-76
2021/03/17 12:40:55;;;;;;;34.05;5.97;;;;;;;;;;4982680;28;20038;-75
2021/03/17 12:43:22;;;;;;;34.20;5.43;;;;;;;;;;4989131;28;20403;-77
2021/03/17 12:45:48;;;;;;;31.10;5.28;;;;;;;;;;4984956;28;20022;-76
2021/03/17 12:48:14;;;;;;;37.25;5.35;;;;;;;;;;4989650;28;20034;-77
2021/03/17 12:50:41;;;;;;;35.00;5.63;;;;;;;;;;4985547;28;20030;-75
2021/03/17 12:53:07;;;;;;;35.33;6.22;;;;;;;;;;4988005;28;20046;-77
2021/03/17 12:55:33;;;;;;;31.70;5.82;;;;;;;;;;4982675;28;20027;-77
2021/03/17 12:57:59;;;;;;;32.22;5.88;;;;;;;;;;4989542;28;20168;-78
2021/03/17 13:00:27;;;;;;;41.95;5.78;;;;;;;;;;4981688;28;20054;-80
2021/03/17 13:02:53;;;;;;;31.90;4.82;;;;;;;;;;4986128;28;20027;-78
2021/03/17 13:05:19;;;;;;;28.27;4.50;;;;;;;;;;4987642;28;20014;-75
2021/03/17 13:07:45;;;;;;;23.83;4.25;;;;;;;;;;4989433;28;20056;-77
2021/03/17 13:10:16;;;;;;;26.02;3.67;;;;;;;;;;4978096;28;20084;-78
2021/03/17 13:12:42;;;;;;;20.98;3.08;;;;;;;;;;4984130;28;20057;-79
2021/03/17 13:15:09;;;;;;;16.83;2.53;;;;;;;;;;4982585;28;20034;-78
2021/03/17 13:17:35;;;;;;;19.00;3.88;;;;;;;;;;4980485;28;20084;-77
2021/03/17 13:20:01;;;;;;;19.85;3.47;;;;;;;;;;4980106;28;20121;-76
2021/03/17 13:22:28;;;;;;;23.90;3.42;;;;;;;;;;4977742;28;20031;-75
2021/03/17 13:24:55;;;;;;;19.33;3.15;;;;;;;;;;4981635;28;20085;-76
2021/03/17 13:27:22;;;;;;;14.38;2.35;;;;;;;;;;4972785;28;20023;-73
2021/03/17 13:29:48;;;;;;;23.48;3.72;;;;;;;;;;4984316;28;20037;-74
2021/03/17 13:32:14;;;;;;;16.70;3.10;;;;;;;;;;4982270;28;20560;-74
2021/03/17 13:34:40;;;;;;;15.25;3.60;;;;;;;;;;4975865;28;20038;-74
2021/03/17 13:37:07;;;;;;;15.38;2.80;;;;;;;;;;4977883;28;20121;-73
2021/03/17 13:39:33;;;;;;;21.42;3.03;;;;;;;;;;4995077;28;20046;-73
2021/03/17 13:41:59;;;;;;;19.42;3.78;;;;;;;;;;4980603;28;20580;-72
2021/03/17 13:44:25;;;;;;;20.30;2.22;;;;;;;;;;4987267;28;20500;-73
2021/03/17 13:46:51;;;;;;;28.90;3.72;;;;;;;;;;4980039;28;20030;-72
2021/03/17 13:49:17;;;;;;;17.25;3.03;;;;;;;;;;4982616;28;20025;-72
2021/03/17 13:51:44;;;;;;;27.55;4.80;;;;;;;;;;4979986;28;20134;-75
2021/03/17 13:54:10;;;;;;;24.35;4.50;;;;;;;;;;4985215;28;20034;-73
2021/03/17 13:56:36;;;;;;;25.30;4.07;;;;;;;;;;4976574;28;20433;-74
2021/03/17 13:59:02;;;;;;;30.63;4.88;;;;;;;;;;4980872;28;20137;-75
2021/03/17 14:01:29;;;;;;;29.92;4.60;;;;;;;;;;4983263;28;20105;-74
2021/03/17 14:03:55;;;;;;;23.17;3.28;;;;;;;;;;4980133;28;20087;-74
2021/03/17 14:06:22;;;;;;;28.13;4.63;;;;;;;;;;4982118;28;20018;-75
2021/03/17 14:08:48;;;;;;;26.08;4.30;;;;;;;;;;4985835;28;20034;-73
2021/03/17 14:11:14;;;;;;;26.73;4.18;;;;;;;;;;4978781;28;20042;-73
2021/03/17 14:13:40;;;;;;;28.48;4.97;;;;;;;;;;4988542;28;20219;-73
2021/03/17 14:16:07;;;;;;;25.10;4.05;;;;;;;;;;4986061;28;20042;-75
2021/03/17 14:18:33;;;;;;;34.10;5.80;;;;;;;;;;4972722;28;20393;-73
2021/03/17 14:20:59;;;;;;;35.15;4.25;;;;;;;;;;4982465;28;20027;-76
2021/03/17 14:23:25;;;;;;;23.20;5.38;;;;;;;;;;4980745;28;20078;-72
2021/03/17 14:25:51;;;;;;;25.83;3.88;;;;;;;;;;4982267;28;20045;-71
2021/03/17 14:28:18;;;;;;;26.65;4.15;;;;;;;;;;4989636;28;20030;-73
2021/03/17 14:30:44;;;;;;;23.00;4.88;;;;;;;;;;4981313;28;20030;-71
2021/03/17 14:33:10;;;;;;;22.00;3.72;;;;;;;;;;4987980;28;20034;-72
2021/03/17 14:35:36;;;;;;;22.27;2.45;;;;;;;;;;4980789;28;20019;-74